sensor_id;sensor_type;location;lat;lon;timestamp;pressure;altitude;pressure_sealevel;temperature;humidity
5877;BME280;2964;42.144;24.730;2022-11-18T00:01:37;143988.31;;;9.65;100.00
5877;BME280;2964;42.144;24.730;2022-11-18T00:04:04;143855.25;;;9.11;100.00
5877;BME280;2964;42.144;24.730;2022-11-18T00:06:30;143857.78;;;9.12;100.00
5877;BME280;2964;42.144;24.730;2022-11-18T00:08:58;143890.41;;;9.25;100.00
5877;BME280;2964;42.144;24.730;2022-11-18T00:11:26;143892.94;;;9.26;100.00
5877;BME280;2964;42.144;24.730;2022-11-18T00:14:12;143902.97;;;9.30;100.00
5877;BME280;2964;42.144;24.730;2022-11-18T00:16:48;143905.44;;;9.31;100.00
5877;BME280;2964;42.144;24.730;2022-11-18T00:19:15;143902.97;;;9.30;100.00
5877;BME280;2964;42.144;24.730;2022-11-18T00:21:42;143950.63;;;9.50;100.00
5877;BME280;2964;42.144;24.730;2022-11-18T00:24:10;143926.78;;;9.40;100.00
5877;BME280;2964;42.144;24.730;2022-11-18T00:26:37;143836.47;;;9.03;100.00
5877;BME280;2964;42.144;24.730;2022-11-18T00:29:04;143828.91;;;9.00;100.00
5877;BME280;2964;42.144;24.730;2022-11-18T00:31:30;143758.69;;;8.71;100.00
5877;BME280;2964;42.144;24.730;2022-11-18T00:33:57;143832.69;;;9.01;100.00
5877;BME280;2964;42.144;24.730;2022-11-18T00:36:24;143889.16;;;9.24;100.00
5877;BME280;2964;42.144;24.730;2022-11-18T00:38:50;143855.25;;;9.11;100.00
5877;BME280;2964;42.144;24.730;2022-11-18T00:41:18;143839.00;;;9.04;100.00
5877;BME280;2964;42.144;24.730;2022-11-18T00:43:45;143840.22;;;9.04;100.00
5877;BME280;2964;42.144;24.730;2022-11-18T00:46:12;143790.06;;;8.84;100.00
5877;BME280;2964;42.144;24.730;2022-11-18T00:48:39;143822.66;;;8.97;100.00
5877;BME280;2964;42.144;24.730;2022-11-18T00:51:12;143869.06;;;9.16;100.00
5877;BME280;2964;42.144;24.730;2022-11-18T00:53:39;143851.50;;;9.09;100.00
5877;BME280;2964;42.144;24.730;2022-11-18T00:56:06;143844.00;;;9.06;100.00
5877;BME280;2964;42.144;24.730;2022-11-18T00:58:34;143929.31;;;9.41;100.00
5877;BME280;2964;42.144;24.730;2022-11-18T01:01:02;143885.38;;;9.23;100.00
5877;BME280;2964;42.144;24.730;2022-11-18T01:03:29;143880.38;;;9.21;100.00
5877;BME280;2964;42.144;24.730;2022-11-18T01:05:56;143896.66;;;9.27;100.00
5877;BME280;2964;42.144;24.730;2022-11-18T01:08:23;143934.34;;;9.43;100.00
5877;BME280;2964;42.144;24.730;2022-11-18T01:10:50;143851.50;;;9.09;100.00
5877;BME280;2964;42.144;24.730;2022-11-18T01:13:19;143910.47;;;9.33;100.00
5877;BME280;2964;42.144;24.730;2022-11-18T01:15:49;143907.97;;;9.32;100.00
5877;BME280;2964;42.144;24.730;2022-11-18T01:18:18;143897.94;;;9.28;100.00
5877;BME280;2964;42.144;24.730;2022-11-18T01:20:46;143896.66;;;9.27;100.00
5877;BME280;2964;42.144;24.730;2022-11-18T01:23:13;143934.34;;;9.43;100.00
5877;BME280;2964;42.144;24.730;2022-11-18T01:25:41;143936.81;;;9.44;100.00
5877;BME280;2964;42.144;24.730;2022-11-18T01:28:09;143885.38;;;9.23;100.00
5877;BME280;2964;42.144;24.730;2022-11-18T01:30:38;143899.19;;;9.28;100.00
5877;BME280;2964;42.144;24.730;2022-11-18T01:33:06;143885.38;;;9.23;100.00
5877;BME280;2964;42.144;24.730;2022-11-18T01:35:34;143866.56;;;9.15;100.00
5877;BME280;2964;42.144;24.730;2022-11-18T01:38:01;143914.22;;;9.35;100.00
5877;BME280;2964;42.144;24.730;2022-11-18T01:40:28;143897.94;;;9.28;100.00
5877;BME280;2964;42.144;24.730;2022-11-18T01:42:54;143864.03;;;9.14;100.00
5877;BME280;2964;42.144;24.730;2022-11-18T01:45:27;143850.25;;;9.08;100.00
5877;BME280;2964;42.144;24.730;2022-11-18T01:47:58;143902.97;;;9.30;100.00
5877;BME280;2964;42.144;24.730;2022-11-18T01:50:28;143877.84;;;9.20;100.00
5877;BME280;2964;42.144;24.730;2022-11-18T01:52:58;143842.72;;;9.05;100.00
5877;BME280;2964;42.144;24.730;2022-11-18T01:55:29;143820.13;;;8.96;100.00
5877;BME280;2964;42.144;24.730;2022-11-18T01:58:05;143815.13;;;8.94;100.00
5877;BME280;2964;42.144;24.730;2022-11-18T02:00:33;143802.59;;;8.89;100.00
5877;BME280;2964;42.144;24.730;2022-11-18T02:03:00;143810.09;;;8.92;100.00
5877;BME280;2964;42.144;24.730;2022-11-18T02:05:29;143901.72;;;9.30;100.00
5877;BME280;2964;42.144;24.730;2022-11-18T02:07:58;143902.97;;;9.30;100.00
5877;BME280;2964;42.144;24.730;2022-11-18T02:10:25;143926.78;;;9.40;100.00
5877;BME280;2964;42.144;24.730;2022-11-18T02:12:53;143910.47;;;9.33;100.00
5877;BME280;2964;42.144;24.730;2022-11-18T02:15:29;143913.00;;;9.34;100.00
5877;BME280;2964;42.144;24.730;2022-11-18T02:18:07;143925.53;;;9.39;100.00
5877;BME280;2964;42.144;24.730;2022-11-18T02:20:41;143907.97;;;9.32;100.00
5877;BME280;2964;42.144;24.730;2022-11-18T02:26:39;143833.97;;;9.02;100.00
5877;BME280;2964;42.144;24.730;2022-11-18T02:29:19;143835.22;;;9.02;100.00
5877;BME280;2964;42.144;24.730;2022-11-18T02:31:54;143859.03;;;9.12;100.00
5877;BME280;2964;42.144;24.730;2022-11-18T02:34:35;143887.88;;;9.24;100.00
5877;BME280;2964;42.144;24.730;2022-11-18T02:37:11;143881.63;;;9.21;100.00
5877;BME280;2964;42.144;24.730;2022-11-18T02:39:44;143895.41;;;9.27;100.00
5877;BME280;2964;42.144;24.730;2022-11-18T02:42:14;143857.78;;;9.12;100.00
5877;BME280;2964;42.144;24.730;2022-11-18T02:44:45;143854.03;;;9.10;100.00
5877;BME280;2964;42.144;24.730;2022-11-18T02:47:14;143934.34;;;9.43;100.00
5877;BME280;2964;42.144;24.730;2022-11-18T02:49:45;143959.41;;;9.53;100.00
5877;BME280;2964;42.144;24.730;2022-11-18T02:52:14;143928.03;;;9.40;100.00
5877;BME280;2964;42.144;24.730;2022-11-18T02:54:43;143885.38;;;9.23;100.00
5877;BME280;2964;42.144;24.730;2022-11-18T02:57:14;143791.28;;;8.84;100.00
5877;BME280;2964;42.144;24.730;2022-11-18T02:59:41;143774.97;;;8.78;100.00
5877;BME280;2964;42.144;24.730;2022-11-18T03:02:14;143808.88;;;8.92;100.00
5877;BME280;2964;42.144;24.730;2022-11-18T03:04:41;143802.59;;;8.89;100.00
5877;BME280;2964;42.144;24.730;2022-11-18T03:07:13;143840.22;;;9.04;100.00
5877;BME280;2964;42.144;24.730;2022-11-18T03:09:46;143810.09;;;8.92;100.00
5877;BME280;2964;42.144;24.730;2022-11-18T03:12:18;143896.66;;;9.27;100.00
5877;BME280;2964;42.144;24.730;2022-11-18T03:14:51;143839.00;;;9.04;100.00
5877;BME280;2964;42.144;24.730;2022-11-18T03:17:33;143862.81;;;9.14;100.00
5877;BME280;2964;42.144;24.730;2022-11-18T03:20:09;143837.69;;;9.03;100.00
5877;BME280;2964;42.144;24.730;2022-11-18T03:22:40;143907.97;;;9.32;100.00
5877;BME280;2964;42.144;24.730;2022-11-18T03:25:12;143862.81;;;9.14;100.00
5877;BME280;2964;42.144;24.730;2022-11-18T03:27:46;143812.63;;;8.93;100.00
5877;BME280;2964;42.144;24.730;2022-11-18T03:30:18;143828.91;;;9.00;100.00
5877;BME280;2964;42.144;24.730;2022-11-18T03:32:50;143825.19;;;8.98;100.00
5877;BME280;2964;42.144;24.730;2022-11-18T03:35:21;143840.22;;;9.04;100.00
5877;BME280;2964;42.144;24.730;2022-11-18T03:37:52;143849.00;;;9.08;100.00
5877;BME280;2964;42.144;24.730;2022-11-18T03:40:22;143810.09;;;8.92;100.00
5877;BME280;2964;42.144;24.730;2022-11-18T03:42:55;143785.03;;;8.82;100.00
5877;BME280;2964;42.144;24.730;2022-11-18T03:45:26;143832.69;;;9.01;100.00
5877;BME280;2964;42.144;24.730;2022-11-18T03:47:59;143778.75;;;8.79;100.00
5877;BME280;2964;42.144;24.730;2022-11-18T03:50:30;143867.81;;;9.16;100.00
5877;BME280;2964;42.144;24.730;2022-11-18T03:52:58;143910.47;;;9.33;100.00
5877;BME280;2964;42.144;24.730;2022-11-18T03:55:31;143884.16;;;9.22;100.00
5877;BME280;2964;42.144;24.730;2022-11-18T03:58:04;143831.44;;;9.01;100.00
5877;BME280;2964;42.144;24.730;2022-11-18T04:00:35;143816.41;;;8.95;100.00
5877;BME280;2964;42.144;24.730;2022-11-18T04:03:05;143810.09;;;8.92;100.00
5877;BME280;2964;42.144;24.730;2022-11-18T04:05:35;143776.25;;;8.78;100.00
5877;BME280;2964;42.144;24.730;2022-11-18T04:08:06;143747.38;;;8.66;100.00
5877;BME280;2964;42.144;24.730;2022-11-18T04:10:37;143738.59;;;8.63;100.00
5877;BME280;2964;42.144;24.730;2022-11-18T04:13:07;143872.84;;;9.18;100.00
5877;BME280;2964;42.144;24.730;2022-11-18T04:15:36;143904.22;;;9.31;100.00
5877;BME280;2964;42.144;24.730;2022-11-18T04:18:05;143860.28;;;9.13;100.00
5877;BME280;2964;42.144;24.730;2022-11-18T04:20:32;143865.28;;;9.15;100.00
5877;BME280;2964;42.144;24.730;2022-11-18T04:22:59;143905.44;;;9.31;100.00
5877;BME280;2964;42.144;24.730;2022-11-18T04:25:26;143943.13;;;9.46;100.00
5877;BME280;2964;42.144;24.730;2022-11-18T04:27:52;143837.69;;;9.03;100.00
5877;BME280;2964;42.144;24.730;2022-11-18T04:30:19;143793.81;;;8.85;100.00
5877;BME280;2964;42.144;24.730;2022-11-18T04:32:46;143776.25;;;8.78;100.00
5877;BME280;2964;42.144;24.730;2022-11-18T04:35:14;143772.50;;;8.77;100.00
5877;BME280;2964;42.144;24.730;2022-11-18T04:37:41;143797.56;;;8.87;100.00
5877;BME280;2964;42.144;24.730;2022-11-18T04:40:09;143821.41;;;8.97;100.00
5877;BME280;2964;42.144;24.730;2022-11-18T04:42:36;143866.56;;;9.15;100.00
5877;BME280;2964;42.144;24.730;2022-11-18T04:45:04;143837.69;;;9.03;100.00
5877;BME280;2964;42.144;24.730;2022-11-18T04:47:31;143844.00;;;9.06;100.00
5877;BME280;2964;42.144;24.730;2022-11-18T04:49:57;143895.41;;;9.27;100.00
5877;BME280;2964;42.144;24.730;2022-11-18T04:52:25;143857.78;;;9.12;100.00
5877;BME280;2964;42.144;24.730;2022-11-18T04:54:52;143876.59;;;9.19;100.00
5877;BME280;2964;42.144;24.730;2022-11-18T04:57:19;143865.28;;;9.15;100.00
5877;BME280;2964;42.144;24.730;2022-11-18T04:59:45;143940.59;;;9.45;100.00
5877;BME280;2964;42.144;24.730;2022-11-18T05:02:12;143654.56;;;8.28;100.00
5877;BME280;2964;42.144;24.730;2022-11-18T05:04:39;143828.91;;;9.00;100.00
5877;BME280;2964;42.144;24.730;2022-11-18T05:07:05;143820.13;;;8.96;100.00
5877;BME280;2964;42.144;24.730;2022-11-18T05:09:34;143797.56;;;8.87;100.00
5877;BME280;2964;42.144;24.730;2022-11-18T05:12:01;143764.94;;;8.74;100.00
5877;BME280;2964;42.144;24.730;2022-11-18T05:14:45;143724.81;;;8.57;100.00
5877;BME280;2964;42.144;24.730;2022-11-18T05:17:11;143709.78;;;8.51;100.00
5877;BME280;2964;42.144;24.730;2022-11-18T05:19:38;143713.56;;;8.53;100.00
5877;BME280;2964;42.144;24.730;2022-11-18T05:22:05;143792.53;;;8.85;100.00
5877;BME280;2964;42.144;24.730;2022-11-18T05:24:33;143741.13;;;8.64;100.00
5877;BME280;2964;42.144;24.730;2022-11-18T05:27:00;143698.47;;;8.46;100.00
5877;BME280;2964;42.144;24.730;2022-11-18T05:29:26;143805.09;;;8.90;100.00
5877;BME280;2964;42.144;24.730;2022-11-18T05:31:53;143771.25;;;8.76;100.00
5877;BME280;2964;42.144;24.730;2022-11-18T05:34:20;143866.56;;;9.15;100.00
5877;BME280;2964;42.144;24.730;2022-11-18T05:36:47;143772.50;;;8.77;100.00
5877;BME280;2964;42.144;24.730;2022-11-18T05:39:13;143807.63;;;8.91;100.00
5877;BME280;2964;42.144;24.730;2022-11-18T05:41:41;143821.41;;;8.97;100.00
5877;BME280;2964;42.144;24.730;2022-11-18T05:44:37;143847.78;;;9.07;100.00
5877;BME280;2964;42.144;24.730;2022-11-18T05:47:04;143820.13;;;8.96;100.00
5877;BME280;2964;42.144;24.730;2022-11-18T05:49:31;143943.13;;;9.46;100.00
5877;BME280;2964;42.144;24.730;2022-11-18T05:51:57;143935.56;;;9.43;100.00
5877;BME280;2964;42.144;24.730;2022-11-18T05:54:24;143920.53;;;9.37;100.00
5877;BME280;2964;42.144;24.730;2022-11-18T05:56:53;143895.41;;;9.27;100.00
5877;BME280;2964;42.144;24.730;2022-11-18T05:59:19;143939.34;;;9.45;100.00
5877;BME280;2964;42.144;24.730;2022-11-18T06:01:50;143855.25;;;9.11;100.00
5877;BME280;2964;42.144;24.730;2022-11-18T06:04:22;143850.25;;;9.08;100.00
5877;BME280;2964;42.144;24.730;2022-11-18T06:06:54;143870.34;;;9.17;100.00
5877;BME280;2964;42.144;24.730;2022-11-18T06:09:28;143828.91;;;9.00;100.00
5877;BME280;2964;42.144;24.730;2022-11-18T06:11:59;143880.38;;;9.21;100.00
5877;BME280;2964;42.144;24.730;2022-11-18T06:14:32;143926.78;;;9.40;100.00
5877;BME280;2964;42.144;24.730;2022-11-18T06:17:04;143935.56;;;9.43;100.00
5877;BME280;2964;42.144;24.730;2022-11-18T06:19:33;143923.00;;;9.38;100.00
5877;BME280;2964;42.144;24.730;2022-11-18T06:22:00;143905.44;;;9.31;100.00
5877;BME280;2964;42.144;24.730;2022-11-18T06:24:27;143851.50;;;9.09;100.00
5877;BME280;2964;42.144;24.730;2022-11-18T06:26:54;143880.38;;;9.21;100.00
5877;BME280;2964;42.144;24.730;2022-11-18T06:29:22;143862.81;;;9.14;100.00
5877;BME280;2964;42.144;24.730;2022-11-18T06:31:49;143871.59;;;9.17;100.00
5877;BME280;2964;42.144;24.730;2022-11-18T06:34:16;143828.91;;;9.00;100.00
5877;BME280;2964;42.144;24.730;2022-11-18T06:36:43;143852.78;;;9.10;100.00
5877;BME280;2964;42.144;24.730;2022-11-18T06:39:09;143835.22;;;9.02;100.00
5877;BME280;2964;42.144;24.730;2022-11-18T06:41:36;143851.50;;;9.09;100.00
5877;BME280;2964;42.144;24.730;2022-11-18T06:44:02;143865.28;;;9.15;100.00
5877;BME280;2964;42.144;24.730;2022-11-18T06:46:29;143938.09;;;9.44;100.00
5877;BME280;2964;42.144;24.730;2022-11-18T06:49:19;143960.69;;;9.54;100.00
5877;BME280;2964;42.144;24.730;2022-11-18T06:51:46;143973.22;;;9.59;100.00
5877;BME280;2964;42.144;24.730;2022-11-18T06:54:13;143965.72;;;9.56;100.00
5877;BME280;2964;42.144;24.730;2022-11-18T06:56:39;144005.88;;;9.72;100.00
5877;BME280;2964;42.144;24.730;2022-11-18T06:59:06;144030.97;;;9.82;100.00
5877;BME280;2964;42.144;24.730;2022-11-18T07:01:35;143930.56;;;9.41;100.00
5877;BME280;2964;42.144;24.730;2022-11-18T07:04:02;144023.47;;;9.79;100.00
5877;BME280;2964;42.144;24.730;2022-11-18T07:06:30;144039.75;;;9.86;100.00
5877;BME280;2964;42.144;24.730;2022-11-18T07:08:58;144101.28;;;10.11;100.00
5877;BME280;2964;42.144;24.730;2022-11-18T07:11:25;143988.31;;;9.65;100.00
5877;BME280;2964;42.144;24.730;2022-11-18T07:13:52;144010.91;;;9.74;100.00
5877;BME280;2964;42.144;24.730;2022-11-18T07:16:21;143963.19;;;9.55;100.00
5877;BME280;2964;42.144;24.730;2022-11-18T07:18:50;143984.53;;;9.63;100.00
5877;BME280;2964;42.144;24.730;2022-11-18T07:21:19;143950.63;;;9.50;100.00
5877;BME280;2964;42.144;24.730;2022-11-18T07:23:47;144010.91;;;9.74;100.00
5877;BME280;2964;42.144;24.730;2022-11-18T07:26:14;144041.00;;;9.86;100.00
5877;BME280;2964;42.144;24.730;2022-11-18T07:28:41;144084.94;;;10.04;100.00
5877;BME280;2964;42.144;24.730;2022-11-18T07:31:10;144126.38;;;10.21;100.00
5877;BME280;2964;42.144;24.730;2022-11-18T07:33:37;144051.06;;;9.91;100.00
5877;BME280;2964;42.144;24.730;2022-11-18T07:36:07;144062.34;;;9.95;100.00
5877;BME280;2964;42.144;24.730;2022-11-18T07:38:35;144012.13;;;9.75;100.00
5877;BME280;2964;42.144;24.730;2022-11-18T07:41:03;144077.44;;;10.01;100.00
5877;BME280;2964;42.144;24.730;2022-11-18T07:43:30;144106.31;;;10.13;100.00
5877;BME280;2964;42.144;24.730;2022-11-18T07:45:57;144143.97;;;10.29;100.00
5877;BME280;2964;42.144;24.730;2022-11-18T07:48:24;144215.59;;;10.58;100.00
5877;BME280;2964;42.144;24.730;2022-11-18T07:50:50;144176.66;;;10.42;100.00
5877;BME280;2964;42.144;24.730;2022-11-18T07:53:19;144189.22;;;10.47;100.00
5877;BME280;2964;42.144;24.730;2022-11-18T07:55:46;144263.34;;;10.77;100.00
5877;BME280;2964;42.144;24.730;2022-11-18T07:58:12;144081.16;;;10.03;100.00
5877;BME280;2964;42.144;24.730;2022-11-18T08:00:39;144267.13;;;10.79;100.00
5877;BME280;2964;42.144;24.730;2022-11-18T08:03:06;144226.94;;;10.62;100.00
5877;BME280;2964;42.144;24.730;2022-11-18T08:05:32;144203.03;;;10.53;100.00
5877;BME280;2964;42.144;24.730;2022-11-18T08:07:59;144186.72;;;10.46;100.00
5877;BME280;2964;42.144;24.730;2022-11-18T08:10:27;144161.59;;;10.36;100.00
5877;BME280;2964;42.144;24.730;2022-11-18T08:12:55;144128.91;;;10.22;100.00
5877;BME280;2964;42.144;24.730;2022-11-18T08:15:22;144189.22;;;10.47;100.00
5877;BME280;2964;42.144;24.730;2022-11-18T08:17:48;144267.13;;;10.79;100.00
5877;BME280;2964;42.144;24.730;2022-11-18T08:20:15;144294.75;;;10.90;100.00
5877;BME280;2964;42.144;24.730;2022-11-18T08:22:42;144298.50;;;10.92;100.00
5877;BME280;2964;42.144;24.730;2022-11-18T08:25:09;144226.94;;;10.62;100.00
5877;BME280;2964;42.144;24.730;2022-11-18T08:27:37;144302.28;;;10.93;100.00
5877;BME280;2964;42.144;24.730;2022-11-18T08:30:04;144199.31;;;10.51;100.00
5877;BME280;2964;42.144;24.730;2022-11-18T08:32:31;144238.22;;;10.67;100.00
5877;BME280;2964;42.144;24.730;2022-11-18T08:34:57;144366.41;;;11.19;100.00
5877;BME280;2964;42.144;24.730;2022-11-18T08:37:24;144353.81;;;11.14;100.00
5877;BME280;2964;42.144;24.730;2022-11-18T08:39:51;144409.09;;;11.37;100.00
5877;BME280;2964;42.144;24.730;2022-11-18T08:42:18;144338.72;;;11.08;100.00
5877;BME280;2964;42.144;24.730;2022-11-18T08:44:48;144314.84;;;10.98;100.00
5877;BME280;2964;42.144;24.730;2022-11-18T08:47:14;144245.75;;;10.70;100.00
5877;BME280;2964;42.144;24.730;2022-11-18T08:49:41;144307.28;;;10.95;100.00
5877;BME280;2964;42.144;24.730;2022-11-18T08:52:08;144357.59;;;11.16;100.00
5877;BME280;2964;42.144;24.730;2022-11-18T08:54:35;144337.47;;;11.08;100.00
5877;BME280;2964;42.144;24.730;2022-11-18T08:57:02;144353.81;;;11.14;100.00
5877;BME280;2964;42.144;24.730;2022-11-18T08:59:29;144331.19;;;11.05;100.00
5877;BME280;2964;42.144;24.730;2022-11-18T09:01:58;144234.44;;;10.66;100.00
5877;BME280;2964;42.144;24.730;2022-11-18T09:04:24;144084.94;;;10.04;100.00
5877;BME280;2964;42.144;24.730;2022-11-18T09:06:51;144174.16;;;10.41;100.00
5877;BME280;2964;42.144;24.730;2022-11-18T09:09:18;144042.28;;;9.87;100.00
5877;BME280;2964;42.144;24.730;2022-11-18T09:11:44;144039.75;;;9.86;100.00
5877;BME280;2964;42.144;24.730;2022-11-18T09:14:11;144032.19;;;9.83;100.00
5877;BME280;2964;42.144;24.730;2022-11-18T09:16:38;144162.84;;;10.36;100.00
5877;BME280;2964;42.144;24.730;2022-11-18T09:19:06;144243.22;;;10.69;100.00
5877;BME280;2964;42.144;24.730;2022-11-18T09:21:32;144189.22;;;10.47;100.00
5877;BME280;2964;42.144;24.730;2022-11-18T09:24:02;144263.34;;;10.77;100.00
5877;BME280;2964;42.144;24.730;2022-11-18T09:26:30;144367.63;;;11.20;100.00
5877;BME280;2964;42.144;24.730;2022-11-18T09:28:57;144382.72;;;11.26;100.00
5877;BME280;2964;42.144;24.730;2022-11-18T09:31:23;144440.53;;;11.50;100.00
5877;BME280;2964;42.144;24.730;2022-11-18T09:33:50;144448.09;;;11.53;100.00
5877;BME280;2964;42.144;24.730;2022-11-18T09:36:20;144307.28;;;10.95;100.00
5877;BME280;2964;42.144;24.730;2022-11-18T09:38:48;144430.50;;;11.46;100.00
5877;BME280;2964;42.144;24.730;2022-11-18T09:41:21;144430.50;;;11.46;100.00
5877;BME280;2964;42.144;24.730;2022-11-18T09:43:58;144515.97;;;11.81;100.00
5877;BME280;2964;42.144;24.730;2022-11-18T09:46:34;144392.75;;;11.30;100.00
5877;BME280;2964;42.144;24.730;2022-11-18T09:49:10;144616.63;;;12.22;100.00
5877;BME280;2964;42.144;24.730;2022-11-18T09:51:43;144562.53;;;12.00;100.00
5877;BME280;2964;42.144;24.730;2022-11-18T09:54:14;144595.22;;;12.13;100.00
5877;BME280;2964;42.144;24.730;2022-11-18T09:56:45;144581.38;;;12.07;100.00
5877;BME280;2964;42.144;24.730;2022-11-18T09:59:14;144546.16;;;11.93;100.00
5877;BME280;2964;42.144;24.730;2022-11-18T10:01:43;144611.59;;;12.20;100.00
5877;BME280;2964;42.144;24.730;2022-11-18T10:04:12;144614.06;;;12.21;100.00
5877;BME280;2964;42.144;24.730;2022-11-18T10:06:42;144573.81;;;12.04;100.00
5877;BME280;2964;42.144;24.730;2022-11-18T10:09:19;144609.06;;;12.19;100.00
5877;BME280;2964;42.144;24.730;2022-11-18T10:11:59;144664.38;;;12.41;100.00
5877;BME280;2964;42.144;24.730;2022-11-18T10:14:38;144645.53;;;12.33;100.00
5877;BME280;2964;42.144;24.730;2022-11-18T10:17:20;144575.13;;;12.05;100.00
5877;BME280;2964;42.144;24.730;2022-11-18T10:19:54;144553.72;;;11.96;100.00
5877;BME280;2964;42.144;24.730;2022-11-18T10:22:26;144546.16;;;11.93;100.00
5877;BME280;2964;42.144;24.730;2022-11-18T10:24:57;144510.94;;;11.78;100.00
5877;BME280;2964;42.144;24.730;2022-11-18T10:27:32;144553.72;;;11.96;100.00
5877;BME280;2964;42.144;24.730;2022-11-18T10:29:59;144518.47;;;11.82;100.00
5877;BME280;2964;42.144;24.730;2022-11-18T10:32:27;144568.81;;;12.02;100.00
5877;BME280;2964;42.144;24.730;2022-11-18T10:34:55;144509.66;;;11.78;100.00
5877;BME280;2964;42.144;24.730;2022-11-18T10:37:27;144558.75;;;11.98;100.00
5877;BME280;2964;42.144;24.730;2022-11-18T10:39:55;144592.72;;;12.12;100.00
5877;BME280;2964;42.144;24.730;2022-11-18T10:42:26;144451.81;;;11.54;100.00
5877;BME280;2964;42.144;24.730;2022-11-18T10:44:54;144463.16;;;11.59;100.00
5877;BME280;2964;42.144;24.730;2022-11-18T10:47:25;144151.56;;;10.32;100.00
5877;BME280;2964;42.144;24.730;2022-11-18T10:49:52;144473.19;;;11.63;100.00
5877;BME280;2964;42.144;24.730;2022-11-18T10:52:20;144455.59;;;11.56;100.00
5877;BME280;2964;42.144;24.730;2022-11-18T10:55:06;144449.34;;;11.53;100.00
5877;BME280;2964;42.144;24.730;2022-11-18T10:57:35;144387.72;;;11.28;100.00
5877;BME280;2964;42.144;24.730;2022-11-18T11:00:04;144474.44;;;11.64;100.00
5877;BME280;2964;42.144;24.730;2022-11-18T11:02:37;144509.66;;;11.78;100.00
5877;BME280;2964;42.144;24.730;2022-11-18T11:05:15;144514.69;;;11.80;100.00
5877;BME280;2964;42.144;24.730;2022-11-18T11:07:43;144489.56;;;11.70;100.00
5877;BME280;2964;42.144;24.730;2022-11-18T11:10:19;144459.38;;;11.57;100.00
5877;BME280;2964;42.144;24.730;2022-11-18T11:12:50;144500.84;;;11.74;100.00
5877;BME280;2964;42.144;24.730;2022-11-18T11:15:23;144488.31;;;11.69;100.00
5877;BME280;2964;42.144;24.730;2022-11-18T11:17:56;144451.81;;;11.54;100.00
5877;BME280;2964;42.144;24.730;2022-11-18T11:20:37;144539.91;;;11.90;100.00
5877;BME280;2964;42.144;24.730;2022-11-18T11:23:08;144554.97;;;11.96;100.00
5877;BME280;2964;42.144;24.730;2022-11-18T11:25:41;144543.69;;;11.92;100.00
5877;BME280;2964;42.144;24.730;2022-11-18T11:28:15;144581.38;;;12.07;100.00
5877;BME280;2964;42.144;24.730;2022-11-18T11:30:45;144631.69;;;12.28;100.00
5877;BME280;2964;42.144;24.730;2022-11-18T11:33:25;144605.28;;;12.17;100.00
5877;BME280;2964;42.144;24.730;2022-11-18T11:36:19;144660.66;;;12.40;100.00
5877;BME280;2964;42.144;24.730;2022-11-18T11:38:54;144573.81;;;12.04;100.00
5877;BME280;2964;42.144;24.730;2022-11-18T11:41:29;144713.44;;;12.61;100.00
5877;BME280;2964;42.144;24.730;2022-11-18T11:44:11;144780.16;;;12.88;100.00
5877;BME280;2964;42.144;24.730;2022-11-18T11:46:52;144766.31;;;12.83;100.00
5877;BME280;2964;42.144;24.730;2022-11-18T11:49:48;144664.38;;;12.41;100.00
5877;BME280;2964;42.144;24.730;2022-11-18T11:52:27;144665.66;;;12.42;100.00
5877;BME280;2964;42.144;24.730;2022-11-18T11:55:05;144728.56;;;12.67;100.00
5877;BME280;2964;42.144;24.730;2022-11-18T11:57:48;144748.69;;;12.75;100.00
5877;BME280;2964;42.144;24.730;2022-11-18T12:00:18;144599.00;;;12.14;100.00
5877;BME280;2964;42.144;24.730;2022-11-18T12:02:55;144659.34;;;12.39;100.00
5877;BME280;2964;42.144;24.730;2022-11-18T12:05:27;144590.19;;;12.11;100.00
5877;BME280;2964;42.144;24.730;2022-11-18T12:08:00;144582.63;;;12.08;100.00
5877;BME280;2964;42.144;24.730;2022-11-18T12:10:33;144638.00;;;12.30;100.00
5877;BME280;2964;42.144;24.730;2022-11-18T12:13:22;144724.78;;;12.66;100.00
5877;BME280;2964;42.144;24.730;2022-11-18T12:15:59;144546.16;;;11.93;100.00
5877;BME280;2964;42.144;24.730;2022-11-18T12:18:33;144780.16;;;12.88;100.00
5877;BME280;2964;42.144;24.730;2022-11-18T12:21:02;144771.34;;;12.85;100.00
5877;BME280;2964;42.144;24.730;2022-11-18T12:23:30;144661.88;;;12.40;100.00
5877;BME280;2964;42.144;24.730;2022-11-18T12:26:00;144737.38;;;12.71;100.00
5877;BME280;2964;42.144;24.730;2022-11-18T12:28:37;144785.19;;;12.90;100.00
5877;BME280;2964;42.144;24.730;2022-11-18T12:31:36;144840.53;;;13.13;100.00
5877;BME280;2964;42.144;24.730;2022-11-18T12:34:19;144840.53;;;13.13;100.00
5877;BME280;2964;42.144;24.730;2022-11-18T12:36:53;144948.84;;;13.57;100.00
5877;BME280;2964;42.144;24.730;2022-11-18T12:39:46;144942.56;;;13.55;100.00
5877;BME280;2964;42.144;24.730;2022-11-18T12:42:41;144972.81;;;13.67;100.00
5877;BME280;2964;42.144;24.730;2022-11-18T12:46:00;144987.91;;;13.73;100.00
5877;BME280;2964;42.144;24.730;2022-11-18T12:48:37;144890.97;;;13.34;100.00
5877;BME280;2964;42.144;24.730;2022-11-18T12:51:37;144875.78;;;13.27;100.00
5877;BME280;2964;42.144;24.730;2022-11-18T12:54:19;144839.28;;;13.12;100.00
5877;BME280;2964;42.144;24.730;2022-11-18T12:56:48;144817.88;;;13.04;100.00
5877;BME280;2964;42.144;24.730;2022-11-18T12:59:16;144893.47;;;13.35;100.00
5877;BME280;2964;42.144;24.730;2022-11-18T13:01:44;144872.00;;;13.26;100.00
5877;BME280;2964;42.144;24.730;2022-11-18T13:04:13;144844.31;;;13.14;100.00
5877;BME280;2964;42.144;24.730;2022-11-18T13:06:40;144825.44;;;13.07;100.00
5877;BME280;2964;42.144;24.730;2022-11-18T13:09:14;144753.72;;;12.78;100.00
5877;BME280;2964;42.144;24.730;2022-11-18T13:11:45;144675.72;;;12.46;100.00
5877;BME280;2964;42.144;24.730;2022-11-18T13:14:15;144743.66;;;12.73;100.00
5877;BME280;2964;42.144;24.730;2022-11-18T13:17:02;144770.09;;;12.84;100.00